ADDS METAR Data INFO
IDs: Format: Raw Decoded Include TAF

Data at: 0241 UTC 17 Jan 2018

KSDB 170153Z AUTO 35009KT 10SM CLR 12/M04 A3025 RMK AO2 SLP210 T01221039
KSDB 170053Z AUTO 35011KT 10SM CLR 12/M02 A3024 RMK AO2 SLP207 T01171022
KSDB 162353Z AUTO 34016KT 10SM CLR 13/M03 A3024 RMK AO2 SLP208 T01281028 10178 20128 53002
KSDB 162253Z AUTO 33020KT 10SM CLR 14/M03 A3022 RMK AO2 SLP198 T01391028
KSDB 162153Z AUTO 33017KT 10SM CLR 14/M02 A3023 RMK AO2 SLP203 T01441022
KSDB 162053Z AUTO 36012KT 10SM CLR 15/M01 A3023 RMK AO2 SLP203 T01501011 58008
KSDB 161953Z AUTO 34015KT 10SM CLR 17/M03 A3025 RMK AO2 SLP201 T01671033
KSDB 161853Z AUTO 36008KT 10SM CLR 16/M02 A3025 RMK AO2 SLP207 T01611022
KSDB 161753Z AUTO VRB04KT 10SM CLR 15/M02 A3026 RMK AO2 SLP210 T01501022 10150 20122 51014
KSDB 161653Z AUTO 00000KT 10SM CLR 12/M01 A3024 RMK AO2 SLP205 T01221011
KSDB 161553Z AUTO 04006KT 10SM CLR 13/M03 A3024 RMK AO2 SLP204 T01281033
KSDB 161453Z AUTO 34018KT 10SM CLR 12/M04 A3021 RMK AO2 SLP197 T01221039 53003
KSDB 161253Z AUTO 33013KT 10SM CLR 14/M05 A3019 RMK AO2 SLP187 T01391050
KSDB 161153Z AUTO 34014KT 10SM CLR 13/M04 A3020 RMK AO2 SLP189 T01281039 10150 20122 58003
KSDB 161053Z AUTO 35011KT 10SM CLR 12/M03 A3022 RMK AO2 SLP194 T01221033
KSDB 160953Z AUTO 33008KT 10SM CLR 13/M05 A3022 RMK AO2 SLP193 T01331050
KSDB 160853Z AUTO 33009KT 10SM CLR 13/M05 A3021 RMK AO2 SLP190 T01281050 56002
KSDB 160753Z AUTO 29005KT 10SM CLR 15/M05 A3022 RMK AO2 SLP191 T01501050 402060100
KSDB 160653Z AUTO 22006KT 10SM CLR 13/M04 A3021 RMK AO2 SLP193 T01331039
KSDB 160553Z AUTO 24008KT 10SM CLR 14/M06 A3022 RMK AO2 SLP194 T01441061 10167 20139 52012
KSDB 160453Z AUTO 29003KT 10SM CLR 16/M08 A3021 RMK AO2 SLP190 T01561078
KSDB 160353Z AUTO 32009KT 10SM CLR 14/M06 A3020 RMK AO2 SLP191 T01441061
KSDB 160253Z AUTO 35009KT 10SM CLR 14/M04 A3018 RMK AO2 SLP188 T01441044 56006
KSDB 152153Z AUTO 36004KT 10SM CLR 20/M01 A3018 RMK AO2 SLP181 T02001011
KSDB 152053Z AUTO 10005KT 10SM CLR 19/00 A3019 RMK AO2 SLP183 T01890000 58017
KSDB 151953Z AUTO 06006KT 10SM CLR 17/00 A3021 RMK AO2 SLP192 T01720000
KSDB 151853Z AUTO 05006KT 10SM CLR 17/01 A3023 RMK AO2 SLP201 T01670006
KSDB 151753Z AUTO 06005KT 10SM CLR 17/M02 A3024 RMK AO2 SLP203 T01671022 10167 20100 51008
KSDB 151653Z AUTO 05005KT 10SM CLR 15/M02 A3024 RMK AO2 SLP205 T01501022
KSDB 151553Z AUTO 06006KT 10SM CLR 12/M02 A3023 RMK AO2 SLP204 T01221022
KSDB 151453Z AUTO 06008KT 10SM CLR 11/M02 A3021 RMK AO2 SLP202 T01061022 53004